createdAt,value
2022-12-18T00:00:49.330Z,18.33
2022-12-18T00:03:37.959Z,17.27
2022-12-18T00:06:27.994Z,17.45
2022-12-18T00:09:16.121Z,14.38
2022-12-18T00:15:03.615Z,17.80
2022-12-18T00:17:51.147Z,15.02
2022-12-18T00:20:39.950Z,13.32
2022-12-18T00:23:28.217Z,20.15
2022-12-18T00:26:19.477Z,13.25
2022-12-18T00:29:14.856Z,13.70
2022-12-18T00:32:04.510Z,18.35
2022-12-18T00:34:52.159Z,14.70
2022-12-18T00:37:39.849Z,13.80
2022-12-18T00:40:27.435Z,13.73
2022-12-18T00:43:15.125Z,12.98
2022-12-18T00:46:03.153Z,12.52
2022-12-18T00:48:50.864Z,13.15
2022-12-18T00:51:38.547Z,13.48
2022-12-18T00:54:26.297Z,14.52
2022-12-18T00:57:13.926Z,14.15
2022-12-18T01:00:02.024Z,16.38
2022-12-18T01:02:50.763Z,14.35
2022-12-18T01:05:41.444Z,21.45
2022-12-18T01:08:29.141Z,25.65
2022-12-18T01:11:21.425Z,25.02
2022-12-18T01:14:09.374Z,38.30
2022-12-18T01:16:58.842Z,18.20
2022-12-18T01:19:46.505Z,19.13
2022-12-18T01:22:35.500Z,16.83
2022-12-18T01:25:24.170Z,21.92
2022-12-18T01:28:12.442Z,19.85
2022-12-18T01:31:16.054Z,17.40
2022-12-18T01:34:06.549Z,17.50
2022-12-18T01:36:55.932Z,24.35
2022-12-18T01:39:43.752Z,29.23
2022-12-18T01:42:39.414Z,25.02
2022-12-18T01:45:33.800Z,26.85
2022-12-18T01:48:22.282Z,21.75
2022-12-18T01:51:12.012Z,22.20
2022-12-18T01:54:00.788Z,25.02
2022-12-18T01:56:48.517Z,23.10
2022-12-18T01:59:37.965Z,24.23
2022-12-18T02:02:28.492Z,23.13
2022-12-18T02:05:30.193Z,24.60
2022-12-18T02:08:29.461Z,24.73
2022-12-18T02:11:24.952Z,23.70
2022-12-18T02:14:22.059Z,28.02
2022-12-18T02:17:43.182Z,24.70
2022-12-18T02:20:49.151Z,26.38
2022-12-18T02:23:37.039Z,28.98
2022-12-18T02:26:45.110Z,23.83
2022-12-18T02:29:41.666Z,35.17
2022-12-18T02:32:35.607Z,31.63
2022-12-18T02:35:28.900Z,33.33
2022-12-18T02:38:19.718Z,37.03
2022-12-18T02:41:11.208Z,31.73
2022-12-18T02:44:02.891Z,30.52
2022-12-18T02:46:54.650Z,32.03
2022-12-18T02:50:00.815Z,31.20
2022-12-18T02:53:17.019Z,30.30
2022-12-18T02:56:21.746Z,35.03
2022-12-18T02:59:17.240Z,29.48
2022-12-18T03:02:39.216Z,27.83
2022-12-18T03:05:36.132Z,34.95
2022-12-18T03:08:28.683Z,34.08
2022-12-18T03:11:38.592Z,33.35
2022-12-18T03:14:32.404Z,29.13
2022-12-18T03:17:24.739Z,33.85
2022-12-18T03:20:36.765Z,27.30
2022-12-18T03:23:27.085Z,29.10
2022-12-18T03:26:19.163Z,30.92
2022-12-18T03:29:18.340Z,38.58
2022-12-18T03:32:17.555Z,32.83
2022-12-18T03:35:08.428Z,26.58
2022-12-18T03:37:58.761Z,31.73
2022-12-18T03:41:17.349Z,34.83
2022-12-18T03:44:43.521Z,30.55
2022-12-18T03:47:46.456Z,30.33
2022-12-18T03:51:02.434Z,32.33
2022-12-18T03:54:17.700Z,31.23
2022-12-18T03:57:23.058Z,30.55
2022-12-18T04:00:16.939Z,27.45
2022-12-18T04:03:37.555Z,28.23
2022-12-18T04:06:29.455Z,34.35
2022-12-18T04:09:17.721Z,41.17
2022-12-18T04:12:08.003Z,30.73
2022-12-18T04:14:56.505Z,32.00
2022-12-18T04:17:49.910Z,34.28
2022-12-18T04:20:40.796Z,31.48
2022-12-18T04:23:29.575Z,35.58
2022-12-18T04:26:19.703Z,36.72
2022-12-18T04:29:36.536Z,34.10
2022-12-18T04:32:29.370Z,33.53
2022-12-18T04:35:21.561Z,29.98
2022-12-18T04:38:12.332Z,33.13
2022-12-18T04:41:00.911Z,24.90
2022-12-18T04:43:49.041Z,30.00
2022-12-18T04:46:36.645Z,31.98
2022-12-18T04:49:26.667Z,30.33
2022-12-18T04:52:17.318Z,29.52
2022-12-18T04:55:05.334Z,32.90
2022-12-18T04:57:53.058Z,30.48
2022-12-18T05:00:40.707Z,25.63
2022-12-18T05:03:28.552Z,30.30
2022-12-18T05:06:16.307Z,32.40
2022-12-18T05:09:04.364Z,28.67
2022-12-18T05:11:52.101Z,30.48
2022-12-18T05:14:42.242Z,21.42
2022-12-18T05:17:29.899Z,24.05
2022-12-18T05:20:20.653Z,26.85
2022-12-18T05:23:08.356Z,32.90
2022-12-18T05:25:58.393Z,33.03
2022-12-18T05:28:47.198Z,32.38
2022-12-18T05:31:39.749Z,41.25
2022-12-18T05:34:27.642Z,32.63
2022-12-18T05:37:15.323Z,35.97
2022-12-18T05:40:05.006Z,31.67
2022-12-18T05:42:35.857Z,32.33
2022-12-18T05:45:23.631Z,28.75
2022-12-18T05:48:17.740Z,31.88
2022-12-18T05:51:10.449Z,37.97
2022-12-18T05:53:58.269Z,35.40
2022-12-18T05:56:49.171Z,35.28
2022-12-18T05:59:39.309Z,24.63
2022-12-18T06:02:27.247Z,32.85
2022-12-18T06:05:15.060Z,28.58
2022-12-18T06:08:03.511Z,29.98
2022-12-18T06:10:57.143Z,30.15
2022-12-18T06:13:47.932Z,27.80
2022-12-18T06:16:35.751Z,27.20
2022-12-18T06:19:26.195Z,30.30
2022-12-18T06:22:13.940Z,29.38
2022-12-18T06:25:01.837Z,29.42
2022-12-18T06:27:49.546Z,29.75
2022-12-18T06:30:37.611Z,29.38
2022-12-18T06:33:28.419Z,30.40
2022-12-18T06:36:16.251Z,29.98
2022-12-18T06:39:04.130Z,26.80
2022-12-18T06:41:52.086Z,32.33
2022-12-18T06:44:40.979Z,31.85
2022-12-18T06:47:28.678Z,26.55
2022-12-18T06:50:16.258Z,34.58
2022-12-18T06:53:06.153Z,27.60
2022-12-18T06:56:10.677Z,33.28
2022-12-18T06:59:01.447Z,23.65
2022-12-18T07:01:58.118Z,34.20
2022-12-18T07:04:49.502Z,35.58
2022-12-18T07:07:41.897Z,27.80
2022-12-18T07:13:22.078Z,30.60
2022-12-18T07:16:25.387Z,61.22
2022-12-18T07:19:19.318Z,71.60
2022-12-18T07:23:18.916Z,66.10
2022-12-18T07:26:13.371Z,36.80
2022-12-18T07:29:01.032Z,34.33
2022-12-18T07:31:48.874Z,23.23
2022-12-18T07:34:39.829Z,26.67
2022-12-18T07:37:27.502Z,23.17
2022-12-18T07:40:15.320Z,24.00
2022-12-18T07:43:03.114Z,30.98
2022-12-18T07:45:51.895Z,30.08
2022-12-18T07:48:39.675Z,35.05
2022-12-18T07:51:27.471Z,26.65
2022-12-18T07:54:15.201Z,39.30
2022-12-18T07:57:02.822Z,48.28
2022-12-18T07:59:50.407Z,37.78
2022-12-18T08:02:39.758Z,27.85
2022-12-18T08:05:28.033Z,29.60
2022-12-18T08:08:15.737Z,32.35
2022-12-18T08:11:03.422Z,33.80
2022-12-18T08:13:52.070Z,34.72
2022-12-18T08:16:39.849Z,29.67
2022-12-18T08:19:30.652Z,34.30
2022-12-18T08:22:18.331Z,30.15
2022-12-18T08:25:06.625Z,31.30
2022-12-18T08:27:55.030Z,34.72
2022-12-18T08:30:43.745Z,31.50
2022-12-18T08:33:31.445Z,24.15
2022-12-18T08:36:20.361Z,30.55
2022-12-18T08:39:09.142Z,26.48
2022-12-18T08:42:18.352Z,25.85
2022-12-18T08:45:06.606Z,28.02
2022-12-18T08:47:56.608Z,26.95
2022-12-18T08:50:44.232Z,28.42
2022-12-18T08:53:35.628Z,40.92
2022-12-18T08:56:23.504Z,32.65
2022-12-18T08:59:17.298Z,29.35
2022-12-18T09:02:07.089Z,27.55
2022-12-18T09:04:57.581Z,30.33
2022-12-18T09:07:45.497Z,22.40
2022-12-18T09:10:36.558Z,20.25
2022-12-18T09:13:29.070Z,20.92
2022-12-18T09:16:18.393Z,31.85
2022-12-18T09:19:07.126Z,23.60
2022-12-18T09:21:57.122Z,28.40
2022-12-18T09:24:44.968Z,14.75
2022-12-18T09:27:36.124Z,19.73
2022-12-18T09:30:23.797Z,22.23
2022-12-18T09:33:12.116Z,17.83
2022-12-18T09:36:04.391Z,14.45
2022-12-18T09:38:54.436Z,21.45
2022-12-18T09:41:56.993Z,18.90
2022-12-18T09:44:51.377Z,19.40
2022-12-18T09:47:40.592Z,24.95
2022-12-18T09:50:38.763Z,18.25
2022-12-18T09:53:31.996Z,16.08
2022-12-18T09:56:24.200Z,15.82
2022-12-18T09:59:22.737Z,16.40
2022-12-18T10:02:24.878Z,15.43
2022-12-18T10:08:24.997Z,13.70
2022-12-18T10:11:30.757Z,17.42
2022-12-18T10:14:39.320Z,13.32
2022-12-18T10:21:11.005Z,13.95
2022-12-18T10:24:17.131Z,12.70
2022-12-18T10:27:17.610Z,14.48
2022-12-18T10:30:14.786Z,17.70
2022-12-18T10:33:04.357Z,28.65
2022-12-18T10:35:56.161Z,14.55
2022-12-18T10:38:44.559Z,14.90
2022-12-18T10:41:33.604Z,19.50
2022-12-18T10:44:24.161Z,22.10
2022-12-18T10:47:20.664Z,20.65
2022-12-18T10:50:21.772Z,18.38
2022-12-18T10:53:21.013Z,22.60
2022-12-18T10:56:08.769Z,18.38
2022-12-18T10:59:17.317Z,13.93
2022-12-18T11:02:39.662Z,16.38
2022-12-18T11:05:33.561Z,14.07
2022-12-18T11:08:25.645Z,17.45
2022-12-18T11:11:24.422Z,11.75
2022-12-18T11:14:22.827Z,13.10
2022-12-18T11:17:26.741Z,10.40
2022-12-18T11:20:35.956Z,13.27
2022-12-18T11:23:28.240Z,12.90
2022-12-18T11:26:16.176Z,12.63
2022-12-18T11:29:16.980Z,13.85
2022-12-18T11:32:31.374Z,9.07
2022-12-18T11:35:43.449Z,14.02
2022-12-18T11:38:40.962Z,13.70
2022-12-18T11:42:06.806Z,12.60
2022-12-18T11:45:03.501Z,12.68
2022-12-18T11:48:14.107Z,6.85
2022-12-18T11:51:04.422Z,9.90
2022-12-18T11:53:53.260Z,11.85
2022-12-18T11:56:49.370Z,8.02
2022-12-18T11:59:59.952Z,13.82
2022-12-18T12:03:22.586Z,8.85
2022-12-18T12:06:26.578Z,7.28
2022-12-18T12:09:32.972Z,9.13
2022-12-18T12:13:11.880Z,11.93
2022-12-18T12:16:20.340Z,13.15
2022-12-18T12:19:34.346Z,8.68
2022-12-18T12:22:27.196Z,8.90
2022-12-18T12:25:32.736Z,6.45
2022-12-18T12:28:56.227Z,13.52
2022-12-18T12:32:20.101Z,7.53
2022-12-18T12:35:33.349Z,9.98
2022-12-18T12:38:41.116Z,16.90
2022-12-18T12:41:51.955Z,9.95
2022-12-18T12:44:45.610Z,9.70
2022-12-18T12:47:47.792Z,11.20
2022-12-18T12:50:36.912Z,14.10
2022-12-18T12:53:35.979Z,12.30
2022-12-18T12:56:29.016Z,13.00
2022-12-18T12:59:45.703Z,11.10
2022-12-18T13:02:56.298Z,8.55
2022-12-18T13:05:55.985Z,11.73
2022-12-18T13:08:58.746Z,11.23
2022-12-18T13:12:08.551Z,15.07
2022-12-18T13:15:24.231Z,13.52
2022-12-18T13:18:11.854Z,10.57
2022-12-18T13:24:24.048Z,11.95
2022-12-18T13:27:49.948Z,18.65
2022-12-18T13:30:55.568Z,10.25
2022-12-18T13:34:23.861Z,14.35
2022-12-18T13:36:56.200Z,13.55
2022-12-18T13:39:43.969Z,18.15
2022-12-18T13:43:09.595Z,18.38
2022-12-18T13:46:01.743Z,16.20
2022-12-18T13:48:55.807Z,13.98
2022-12-18T13:51:56.719Z,17.30
2022-12-18T13:55:08.498Z,10.98
2022-12-18T13:58:07.266Z,12.32
2022-12-18T14:00:55.253Z,16.15
2022-12-18T14:03:43.102Z,15.65
2022-12-18T14:06:31.391Z,21.90
2022-12-18T14:09:27.309Z,17.70
2022-12-18T14:12:42.116Z,13.80
2022-12-18T14:15:35.251Z,21.90
2022-12-18T14:18:48.090Z,18.08
2022-12-18T14:21:36.391Z,24.92
2022-12-18T14:24:24.266Z,20.55
2022-12-18T14:27:21.802Z,17.83
2022-12-18T14:30:25.066Z,24.75
2022-12-18T14:33:19.849Z,22.00
2022-12-18T14:36:17.355Z,21.92
2022-12-18T14:39:05.179Z,20.98
2022-12-18T14:41:53.911Z,18.90
2022-12-18T14:45:05.068Z,20.00
2022-12-18T14:47:49.229Z,27.25
2022-12-18T14:50:37.449Z,20.25
2022-12-18T14:53:34.203Z,19.00
2022-12-18T14:56:25.044Z,23.50
2022-12-18T14:59:23.736Z,25.27
2022-12-18T15:02:14.764Z,23.63
2022-12-18T15:05:08.419Z,23.73
2022-12-18T15:08:03.312Z,21.92
2022-12-18T15:10:51.200Z,23.55
2022-12-18T15:13:39.894Z,23.20
2022-12-18T15:16:28.136Z,24.58
2022-12-18T15:19:20.112Z,28.08
2022-12-18T15:22:29.361Z,28.77
2022-12-18T15:25:34.398Z,29.58
2022-12-18T15:28:58.674Z,21.50
2022-12-18T15:32:01.792Z,29.50
2022-12-18T15:34:49.468Z,35.55
2022-12-18T15:37:37.131Z,48.70
2022-12-18T15:40:25.240Z,30.10
2022-12-18T15:43:31.399Z,40.55
2022-12-18T15:46:23.629Z,36.35
2022-12-18T15:49:11.172Z,37.10
2022-12-18T15:52:01.171Z,42.22
2022-12-18T15:55:07.405Z,53.60
2022-12-18T15:57:55.075Z,36.17
2022-12-18T16:00:42.780Z,36.08
2022-12-18T16:03:30.943Z,39.67
2022-12-18T16:06:18.704Z,35.30
2022-12-18T16:09:06.703Z,38.75
2022-12-18T16:11:54.375Z,34.28
2022-12-18T16:14:45.261Z,43.35
2022-12-18T16:17:33.811Z,42.25
2022-12-18T16:20:23.454Z,44.53
2022-12-18T16:23:11.187Z,36.25
2022-12-18T16:25:58.978Z,39.78
2022-12-18T16:28:56.211Z,49.80
2022-12-18T16:31:44.340Z,49.88
2022-12-18T16:34:38.944Z,67.47
2022-12-18T16:37:30.423Z,56.22
2022-12-18T16:40:19.248Z,61.30
2022-12-18T16:43:07.040Z,60.17
2022-12-18T16:46:01.119Z,68.95
2022-12-18T16:48:48.993Z,52.90
2022-12-18T16:51:37.598Z,49.72
2022-12-18T16:54:30.807Z,50.15
2022-12-18T16:57:21.069Z,45.67
2022-12-18T17:00:12.264Z,34.65
2022-12-18T17:03:01.738Z,41.17
2022-12-18T17:05:53.359Z,53.63
2022-12-18T17:08:41.071Z,36.50
2022-12-18T17:11:32.349Z,38.47
2022-12-18T17:14:23.166Z,61.03
2022-12-18T17:17:26.146Z,55.38
2022-12-18T17:20:16.769Z,48.90
2022-12-18T17:23:04.944Z,38.10
2022-12-18T17:25:56.641Z,36.88
2022-12-18T17:28:44.450Z,49.58
2022-12-18T17:31:32.444Z,39.47
2022-12-18T17:34:22.145Z,32.22
2022-12-18T17:37:09.737Z,38.72
2022-12-18T17:39:57.491Z,55.13
2022-12-18T17:42:35.734Z,46.80
2022-12-18T17:45:23.418Z,36.20
2022-12-18T17:48:11.127Z,32.92
2022-12-18T17:51:05.381Z,37.72
2022-12-18T17:53:53.505Z,31.02
2022-12-18T17:56:41.294Z,32.17
2022-12-18T17:59:29.018Z,29.55
2022-12-18T18:02:16.869Z,38.08
2022-12-18T18:05:05.541Z,36.45
2022-12-18T18:07:53.313Z,45.50
2022-12-18T18:10:49.733Z,69.60
2022-12-18T18:13:59.258Z,48.72
2022-12-18T18:16:53.407Z,44.03
2022-12-18T18:19:45.457Z,103.13
2022-12-18T18:22:36.472Z,52.92
2022-12-18T18:25:24.753Z,37.35
2022-12-18T18:28:14.035Z,59.80
2022-12-18T18:31:06.529Z,43.78
2022-12-18T18:33:57.321Z,40.53
2022-12-18T18:36:47.065Z,39.22
2022-12-18T18:39:40.165Z,28.98
2022-12-18T18:42:29.083Z,28.48
2022-12-18T18:45:16.857Z,41.92
2022-12-18T18:48:04.856Z,35.65
2022-12-18T18:51:11.081Z,36.92
2022-12-18T18:54:00.355Z,32.83
2022-12-18T18:59:59.583Z,37.40
2022-12-18T19:02:47.306Z,27.88
2022-12-18T19:05:35.184Z,36.63
2022-12-18T19:08:23.974Z,34.67
2022-12-18T19:11:36.569Z,38.13
2022-12-18T19:14:24.584Z,32.90
2022-12-18T19:17:12.342Z,31.27
2022-12-18T19:20:03.010Z,35.10
2022-12-18T19:22:56.985Z,28.92
2022-12-18T19:25:44.749Z,30.63
2022-12-18T19:28:33.101Z,30.58
2022-12-18T19:31:31.811Z,38.20
2022-12-18T19:34:22.713Z,32.40
2022-12-18T19:37:10.714Z,33.35
2022-12-18T19:39:58.810Z,32.70
2022-12-18T19:42:48.498Z,42.13
2022-12-18T19:45:36.831Z,41.55
2022-12-18T19:48:29.875Z,44.78
2022-12-18T19:51:28.528Z,38.65
2022-12-18T19:54:17.376Z,49.80
2022-12-18T19:57:08.333Z,51.63
2022-12-18T19:59:55.983Z,57.33
2022-12-18T20:02:43.919Z,42.17
2022-12-18T20:05:32.015Z,50.95
2022-12-18T20:08:27.785Z,49.22
2022-12-18T20:11:15.476Z,61.92
2022-12-18T20:14:04.358Z,56.38
2022-12-18T20:16:53.402Z,42.67
2022-12-18T20:19:42.063Z,43.80
2022-12-18T20:22:29.962Z,32.53
2022-12-18T20:25:20.577Z,41.85
2022-12-18T20:28:08.268Z,32.83
2022-12-18T20:31:02.997Z,31.90
2022-12-18T20:33:52.038Z,35.13
2022-12-18T20:36:41.192Z,40.25
2022-12-18T20:39:30.290Z,36.08
2022-12-18T20:42:18.072Z,31.17
2022-12-18T20:45:06.483Z,31.25
2022-12-18T20:47:57.490Z,38.45
2022-12-18T20:50:45.121Z,46.47
2022-12-18T20:53:36.887Z,109.00
2022-12-18T20:56:30.825Z,32.13
2022-12-18T21:02:28.301Z,34.00
2022-12-18T21:05:20.452Z,49.10
2022-12-18T21:08:10.572Z,42.38
2022-12-18T21:11:41.109Z,38.60
2022-12-18T21:14:31.179Z,35.10
2022-12-18T21:17:18.932Z,37.22
2022-12-18T21:20:07.269Z,62.33
2022-12-18T21:22:57.708Z,39.35
2022-12-18T21:26:40.467Z,30.20
2022-12-18T21:29:33.511Z,38.88
2022-12-18T21:32:21.205Z,32.15
2022-12-18T21:35:11.520Z,38.50
2022-12-18T21:37:59.029Z,33.08
2022-12-18T21:40:46.663Z,37.63
2022-12-18T21:43:53.289Z,31.38
2022-12-18T21:46:44.349Z,24.55
2022-12-18T21:49:32.074Z,30.80
2022-12-18T21:52:28.340Z,28.10
2022-12-18T21:55:19.956Z,25.13
2022-12-18T21:58:34.256Z,29.40
2022-12-18T22:01:21.993Z,33.22
2022-12-18T22:04:12.415Z,30.95
2022-12-18T22:07:05.277Z,27.17
2022-12-18T22:09:53.088Z,30.48
2022-12-18T22:12:44.043Z,26.70
2022-12-18T22:15:32.575Z,29.48
2022-12-18T22:18:23.087Z,28.23
2022-12-18T22:21:29.022Z,30.73
2022-12-18T22:24:22.792Z,28.92
2022-12-18T22:27:10.509Z,30.38
2022-12-18T22:30:04.417Z,35.90
2022-12-18T22:32:52.197Z,35.30
2022-12-18T22:35:42.103Z,26.33
2022-12-18T22:38:29.834Z,30.67
2022-12-18T22:41:18.112Z,24.20
2022-12-18T22:44:05.983Z,31.25
2022-12-18T22:47:05.554Z,29.83
2022-12-18T22:49:54.391Z,32.85
2022-12-18T22:52:42.544Z,22.38
2022-12-18T22:55:30.282Z,26.80
2022-12-18T22:58:18.575Z,29.17
2022-12-18T23:01:07.101Z,30.50
2022-12-18T23:03:55.473Z,30.67
2022-12-18T23:06:44.303Z,30.90
2022-12-18T23:09:32.447Z,30.92
2022-12-18T23:12:20.348Z,34.67
2022-12-18T23:15:08.358Z,26.88
2022-12-18T23:17:58.107Z,29.52
2022-12-18T23:20:45.848Z,29.00
2022-12-18T23:23:36.222Z,26.77
2022-12-18T23:26:25.301Z,27.65
2022-12-18T23:29:12.881Z,35.03
2022-12-18T23:32:00.544Z,27.30
2022-12-18T23:34:48.356Z,31.95
2022-12-18T23:37:59.047Z,31.70
2022-12-18T23:40:43.803Z,32.13
2022-12-18T23:43:36.480Z,30.42
2022-12-18T23:46:30.485Z,30.15
2022-12-18T23:49:18.705Z,28.58
2022-12-18T23:52:06.526Z,34.83
2022-12-18T23:54:56.234Z,25.80
2022-12-18T23:57:43.944Z,30.50
